Benton, Arkansas
Current Conditions -  °F | °C
As of 10:53 PM on Friday 24 Oct 2014 (Local Time) from KLIT Reporting Station
Scattered Clouds Scattered Clouds  
Wind Chill: 61°   Ceiling: Unl
Heat Index: 61°   Visibility: 10mi
Dew Point: 55°   Wind: 5mph
Humidity: 81%   Direction: 240°WSW
Pressure: 30.11"   Gusts: NA
Location:  34.56°N, 92.59°W
Report Text: KLIT 250353Z 24004KT 10SM SCT200 16/13 A3011 RMK AO2 SLP197 T01610128
Loading
Personal Weather Stations






























Interactive Weather Map
Tropical Storm Tracking
New forecast layout! Learn more

10-Day Weather Forecast

Advertisements
Track Severe Weather on mobile